Connect with us

Forex

Euro-Area Economic Activity Accelerates to Fastest in Six Years

Published

on

stimulus
  • Euro-Area Economic Activity Accelerates to Fastest in Six Years

Euro-area economic momentum accelerated to its fastest pace in six years in April, signaling a strong start to the second quarter amid buoyant demand and strong growth in employment.

A Purchasing Managers’ Index for manufacturing and services rose to 56.7 in April from 56.4 in March, IHS Markit said in its flash reading released on Friday. Economists surveyed by Bloomberg predicted the measure would remain unchanged. Job creation rose to the highest level in almost a decade with more evidence of growing wage pressures, according to the report.

The euro-area recovery is gathering pace despite a looming election in France, which could result in a president who is openly hostile to the single currency. The economic resilience is slowly pushing the European Central Bank toward a discussion about an exit from its unprecedented stimulus, which it has pledged to keep in place until at least the end of this year.

“France’s elections pose the highest near-term risk to the outlook, but in the lead-up to the vote the business mood has clearly been buoyant,” said Chris Williamson, chief business economist at IHS Markit.

Markit’s measure for growth in business activity in France has overtaken that seen in Germany amid rising optimism about the future, according to the report. Even so, both economies — the two biggest in the euro area — are enjoying their best spells of expansion in six years.

“Elsewhere in the region the pace of expansion has accelerated to a near 10-year high, cementing the increasingly broad-based nature of the upturn,” Williamson said.

A gauge for manufacturing in the euro region advanced to 56.8 from 56.2 in March, the highest level in six years, IHS Markit said. The services PMI rose to 56.2 from 56.

Price pressures remained elevated, with both input prices and those charged for goods and services holding close to their six-year highs.

CEO/Founder Investors King Ltd, a foreign exchange research analyst, contributing author on New York-based Talk Markets and Investing.com, with over a decade experience in the global financial markets.

Naira

Daily Naira Exchange Rates; Friday, March 5, 2021

Published

on

naira

Naira Exchange Rates; Friday, March 5, 2021

Naira remained pressured across key foreign exchange markets on Friday, March 5, 2021 as scarcity persists. The local currency traded at N480 to a United States Dollar at the parallel market on Friday morning while it exchanged at N673 to a British Pound and N580 to the European common currency.

Daily Naira Black Market Exchange Rates

Morning * Midday** Evening *** Final Rates

Date USD GBP EURO YUAN Canadian Australian
NGN BUY/SELL BUY/SELL BUY/SELL BUY/SELL BUY/SELL BUY/SELL
05/03/2021 465/480* 667/673* 574/580* 60/68 385/395 382/300
04/03/2021 475/480 665/672 574/580 60/68 385/395 382/300
03/03/2021 475/480 662/672 574/580 60/68 385/395 382/300
02/03/2021 475/480 662/672 574/580 60/68 385/395 382/300
01/03/2021 475/482 662/672 575/583 60/68 385/395 382/300
26/02/2021 475/482 660/672 575/583 60/68 385/395 382/300
25/02/2021 475/480 660/670 572/580 60/68 385/395 282/300
24/02/2021 475/480 655/670 570/580 60/68 385/395 282/300
23/02/2021 475/480 655/665 575/582 60/68 385/395 282/300
22/02/2021 475/480 652/660 575/580 60/68 385/395 282/300
19/02/2021 474/478 648/655 570/577 60/68 385/395 282/300
18/02/2021 472/477 645/655 570/575 60/68 385/395 282/300
17/02/2021 472/478 645/655 570/575 60/68 385/395 282/300
16/02/2021 465/473 645/652 565/570 60/68 385/395 282/300
15/02/2021 465/473 642/652 562/570 60/68 385/395 282/300
12/02/2021 465/473 642/650 562/570 60/68 385/395 282/300
11/02/2021 465/475 640/650 560/570 60/70 385/400 280/300
10/02/2021 472/478 645/652 565/575 60/70 385/400 280/300
09/02/2021 474/480 645/655 567/575 60/70 385/400 280/300
08/02/2021 474/480 645/655 567/575 60/70 385/400 280/300
05/02/2021 474/480 645/653 567/578 60/70 385/400 280/300
04/02/2021 474/480 645/653 567/578 60/70 385/400 280/300
03/02/2021 474/480 642/655 575/580 60/70 385/400 280/300
02/02/2021 474/480 642/655 575/580 60/70 385/400 280/300
01/02/2021 474/480 642/655 575/580 60/70 385/400 280/300
29/01/2021 474/480 642/652 575/580 60/70 385/400 280/300

Bureau De Change Naira Rates

Date USD GBP EURO
NGN BUY/SELL BUY/SELL BUY/SELL
05/03/2021 470/480 662/672 570/580
04/03/2021 470/480 662/672 570/580
03/03/2021 470/480 662/670 573/580
02/03/2021 470/480 660/669 573/580
01/03/2021 470/480 660/669 574/580
26/02/2021 470/480 660/669 574/580
25/02/2021 470/480 658/665 574/580
24/02/2021 470/478 654/660 570/578
23/02/2021 470/478 654/660 570/578
22/02/2021 470/477 650/656 570/577
19/02/2021 465/476 645/656 565/573
18/02/2021 465/475 640/652 563/570
17/02/2021 465/477 640/655 562/572
16/02/2021 460/475 640/652 562/570
15/02/2021 460/475 638/652 561/568
12/02/2021 467/475 635/650 562/570
11/02/2021 465/475 640/655 560/575
10/02/2021 472/478 640/655 565/575
09/02/2021 472/478 640/655 565/575
08/02/2021 472/478 640/655 565/575
05/02/2021 472/478 640/650 565/575
04/02/2021 472/478 640/650 565/575
03/02/2021 471/478 640/650 572/580
02/02/2021 471/478 640/655 572/580
01/02/2021 471/478 640/655 572/580
29/01/2021 471/477 640/648 570/579

Central Bank of Nigeria’s Official Naira Rates

Continue Reading

Naira

Naira Hits Record Low of N427 Against the United States Dollar on I&E FX Window

Published

on

Nigeria 1000 notes

Naira Exchanges at N427 Against the United States Dollar on I&E FX Window

The Nigerian Naira plunged to as low as N427.45 against the United States Dollar on the Investors and Exporters Foreign Exchange Window on Thursday, March 4, 2021.

The local currency pulled back to N406.50 a US Dollar but opened lower at N412.50 on Friday morning.

Investors traded $66.99 million during the trading hours of Thursday.

At the black market section of the foreign exchange, Naira traded at N480 against the United States Dollar while the British Pound was exchanged at N673.

The Euro common currency remained unchanged at N580, the same rate it exchanged on Monday.

Despite the surge in the oil price to N67 per barrel and a series of forex policies, the Central Bank of Nigeria continues to struggle with low dollar liquidity across the board.

Nigeria’s foreign reserves declined by about $1 billion in one month as Africa’s largest economy struggles with the weak fiscal buffer necessary to mitigate COVID-19 impacts and deepen productivity.

It would be recalled that the Central Bank of Nigeria adjusted its diaspora foreign remittance policy to curb rising foreign exchange rates and put an end to black market transactions hurting the nation’s local currency value.

However, since the new policy was enacted in November 2020, forex scarcity remained pervasive with diaspora remittance inflow expected to decline by $2 billion in 2020.

Continue Reading

Naira

Daily Naira Exchange Rates; Thursday, March 4, 2021

Published

on

interbank

Naira Exchange Rates; Thursday, March 4, 2021

Naira exchanged lower against global counterparts on Thursday morning as scarcity persists across forex segments. Naira traded at N480 to United States Dollar on the black market while to a British Pound it sold for N672 as shown below.

Daily Naira Black Market Exchange Rates

Morning * Midday** Evening *** Final Rates

Date USD GBP EURO YUAN Canadian Australian
NGN BUY/SELL BUY/SELL BUY/SELL BUY/SELL BUY/SELL BUY/SELL
04/03/2021 475/480 665/672 574/580 60/68 385/395 382/300
03/03/2021 475/480 662/672 574/580 60/68 385/395 382/300
02/03/2021 475/480 662/672 574/580 60/68 385/395 382/300
01/03/2021 475/482 662/672 575/583 60/68 385/395 382/300
26/02/2021 475/482 660/672 575/583 60/68 385/395 382/300
25/02/2021 475/480 660/670 572/580 60/68 385/395 282/300
24/02/2021 475/480 655/670 570/580 60/68 385/395 282/300
23/02/2021 475/480 655/665 575/582 60/68 385/395 282/300
22/02/2021 475/480 652/660 575/580 60/68 385/395 282/300
19/02/2021 474/478 648/655 570/577 60/68 385/395 282/300
18/02/2021 472/477 645/655 570/575 60/68 385/395 282/300
17/02/2021 472/478 645/655 570/575 60/68 385/395 282/300
16/02/2021 465/473 645/652 565/570 60/68 385/395 282/300
15/02/2021 465/473 642/652 562/570 60/68 385/395 282/300
12/02/2021 465/473 642/650 562/570 60/68 385/395 282/300
11/02/2021 465/475 640/650 560/570 60/70 385/400 280/300
10/02/2021 472/478 645/652 565/575 60/70 385/400 280/300
09/02/2021 474/480 645/655 567/575 60/70 385/400 280/300
08/02/2021 474/480 645/655 567/575 60/70 385/400 280/300
05/02/2021 474/480 645/653 567/578 60/70 385/400 280/300
04/02/2021 474/480 645/653 567/578 60/70 385/400 280/300
03/02/2021 474/480 642/655 575/580 60/70 385/400 280/300
02/02/2021 474/480 642/655 575/580 60/70 385/400 280/300
01/02/2021 474/480 642/655 575/580 60/70 385/400 280/300
29/01/2021 474/480 642/652 575/580 60/70 385/400 280/300

Bureau De Change Naira Rates

Date USD GBP EURO
NGN BUY/SELL BUY/SELL BUY/SELL
04/03/2021 470/480 662/672 570/580
03/03/2021 470/480 662/670 573/580
02/03/2021 470/480 660/669 573/580
01/03/2021 470/480 660/669 574/580
26/02/2021 470/480 660/669 574/580
25/02/2021 470/480 658/665 574/580
24/02/2021 470/478 654/660 570/578
23/02/2021 470/478 654/660 570/578
22/02/2021 470/477 650/656 570/577
19/02/2021 465/476 645/656 565/573
18/02/2021 465/475 640/652 563/570
17/02/2021 465/477 640/655 562/572
16/02/2021 460/475 640/652 562/570
15/02/2021 460/475 638/652 561/568
12/02/2021 467/475 635/650 562/570
11/02/2021 465/475 640/655 560/575
10/02/2021 472/478 640/655 565/575
09/02/2021 472/478 640/655 565/575
08/02/2021 472/478 640/655 565/575
05/02/2021 472/478 640/650 565/575
04/02/2021 472/478 640/650 565/575
03/02/2021 471/478 640/650 572/580
02/02/2021 471/478 640/655 572/580
01/02/2021 471/478 640/655 572/580
29/01/2021 471/477 640/648 570/579

Central Bank of Nigeria’s Official Naira Rates

Continue Reading

Trending